sensor_id;sensor_type;location;lat;lon;timestamp;temperature;humidity
19930;DHT22;10127;47.780;9.606;2023-02-11T00:01:29;-0.40;99.90
19930;DHT22;10127;47.780;9.606;2023-02-11T00:03:55;-0.50;99.90
19930;DHT22;10127;47.780;9.606;2023-02-11T00:06:22;-0.50;99.90
19930;DHT22;10127;47.780;9.606;2023-02-11T00:08:47;-0.30;99.90
19930;DHT22;10127;47.780;9.606;2023-02-11T00:11:15;-0.10;99.90
19930;DHT22;10127;47.780;9.606;2023-02-11T00:13:42;-0.10;99.90
19930;DHT22;10127;47.780;9.606;2023-02-11T00:16:10;-0.10;99.90
19930;DHT22;10127;47.780;9.606;2023-02-11T00:18:36;0.00;99.90
19930;DHT22;10127;47.780;9.606;2023-02-11T00:21:06;0.00;99.90
19930;DHT22;10127;47.780;9.606;2023-02-11T00:23:32;0.00;99.90
19930;DHT22;10127;47.780;9.606;2023-02-11T00:25:58;-0.10;99.90
19930;DHT22;10127;47.780;9.606;2023-02-11T00:28:23;-0.20;99.90
19930;DHT22;10127;47.780;9.606;2023-02-11T00:30:56;-0.20;99.90
19930;DHT22;10127;47.780;9.606;2023-02-11T00:33:23;-0.50;99.90
19930;DHT22;10127;47.780;9.606;2023-02-11T00:35:48;-0.60;99.90
19930;DHT22;10127;47.780;9.606;2023-02-11T00:38:14;-0.80;99.90
19930;DHT22;10127;47.780;9.606;2023-02-11T00:40:40;-0.70;99.90
19930;DHT22;10127;47.780;9.606;2023-02-11T00:43:05;-0.70;99.90
19930;DHT22;10127;47.780;9.606;2023-02-11T00:45:31;-0.90;99.90
19930;DHT22;10127;47.780;9.606;2023-02-11T00:47:56;-0.90;99.90
19930;DHT22;10127;47.780;9.606;2023-02-11T00:50:22;-0.80;99.90
19930;DHT22;10127;47.780;9.606;2023-02-11T00:52:48;-0.70;99.90
19930;DHT22;10127;47.780;9.606;2023-02-11T00:55:14;-0.50;99.90
19930;DHT22;10127;47.780;9.606;2023-02-11T00:57:40;-0.50;99.90
19930;DHT22;10127;47.780;9.606;2023-02-11T01:00:07;-0.40;99.90
19930;DHT22;10127;47.780;9.606;2023-02-11T01:02:33;-0.30;99.90
19930;DHT22;10127;47.780;9.606;2023-02-11T01:04:59;-0.30;99.90
19930;DHT22;10127;47.780;9.606;2023-02-11T01:07:26;-0.40;99.90
19930;DHT22;10127;47.780;9.606;2023-02-11T01:09:52;-0.50;99.90
19930;DHT22;10127;47.780;9.606;2023-02-11T01:12:18;-0.60;99.90
19930;DHT22;10127;47.780;9.606;2023-02-11T01:14:43;-0.50;99.90
19930;DHT22;10127;47.780;9.606;2023-02-11T01:17:09;-0.50;99.90
19930;DHT22;10127;47.780;9.606;2023-02-11T01:19:36;-0.60;99.90
19930;DHT22;10127;47.780;9.606;2023-02-11T01:22:02;-0.80;99.90
19930;DHT22;10127;47.780;9.606;2023-02-11T01:24:27;-0.80;99.90
19930;DHT22;10127;47.780;9.606;2023-02-11T01:26:53;-0.60;99.90
19930;DHT22;10127;47.780;9.606;2023-02-11T01:29:19;-0.70;99.90
19930;DHT22;10127;47.780;9.606;2023-02-11T01:31:44;-0.90;99.90
19930;DHT22;10127;47.780;9.606;2023-02-11T01:34:10;-0.90;99.90
19930;DHT22;10127;47.780;9.606;2023-02-11T01:36:36;-0.90;99.90
19930;DHT22;10127;47.780;9.606;2023-02-11T01:39:01;-1.00;99.90
19930;DHT22;10127;47.780;9.606;2023-02-11T01:41:27;-1.20;99.90
19930;DHT22;10127;47.780;9.606;2023-02-11T01:43:53;-1.20;99.90
19930;DHT22;10127;47.780;9.606;2023-02-11T01:49:09;-1.10;99.90
19930;DHT22;10127;47.780;9.606;2023-02-11T01:51:41;-0.80;99.90
19930;DHT22;10127;47.780;9.606;2023-02-11T01:54:10;-0.90;99.90
19930;DHT22;10127;47.780;9.606;2023-02-11T01:56:58;-1.10;99.90
19930;DHT22;10127;47.780;9.606;2023-02-11T02:05:22;-1.30;99.90
19930;DHT22;10127;47.780;9.606;2023-02-11T02:08:03;-1.20;99.90
19930;DHT22;10127;47.780;9.606;2023-02-11T02:10:33;-1.10;99.90
19930;DHT22;10127;47.780;9.606;2023-02-11T02:12:59;-1.10;99.90
19930;DHT22;10127;47.780;9.606;2023-02-11T02:15:49;-1.00;99.90
19930;DHT22;10127;47.780;9.606;2023-02-11T02:18:44;-1.10;99.90
19930;DHT22;10127;47.780;9.606;2023-02-11T02:29:35;-1.30;99.90
19930;DHT22;10127;47.780;9.606;2023-02-11T02:35:10;-1.30;99.90
19930;DHT22;10127;47.780;9.606;2023-02-11T02:38:29;-1.30;99.90
19930;DHT22;10127;47.780;9.606;2023-02-11T02:40:35;-1.30;99.90
19930;DHT22;10127;47.780;9.606;2023-02-11T02:43:04;-1.40;99.90
19930;DHT22;10127;47.780;9.606;2023-02-11T02:45:32;-1.40;99.90
19930;DHT22;10127;47.780;9.606;2023-02-11T02:47:57;-1.40;99.90
19930;DHT22;10127;47.780;9.606;2023-02-11T02:50:27;-1.50;99.90
19930;DHT22;10127;47.780;9.606;2023-02-11T03:11:21;-1.90;99.90
19930;DHT22;10127;47.780;9.606;2023-02-11T03:13:48;-2.00;99.90
19930;DHT22;10127;47.780;9.606;2023-02-11T03:16:21;-2.10;99.90
19930;DHT22;10127;47.780;9.606;2023-02-11T03:21:37;-2.30;99.90
19930;DHT22;10127;47.780;9.606;2023-02-11T03:24:13;-2.20;99.90
19930;DHT22;10127;47.780;9.606;2023-02-11T03:26:49;-2.00;99.90
19930;DHT22;10127;47.780;9.606;2023-02-11T03:32:11;-1.50;99.90
19930;DHT22;10127;47.780;9.606;2023-02-11T03:34:48;-1.40;99.90
19930;DHT22;10127;47.780;9.606;2023-02-11T03:37:26;-1.20;99.90
19930;DHT22;10127;47.780;9.606;2023-02-11T03:40:02;-1.20;99.90
19930;DHT22;10127;47.780;9.606;2023-02-11T03:42:38;-1.10;99.90
19930;DHT22;10127;47.780;9.606;2023-02-11T03:45:08;-1.00;99.90
19930;DHT22;10127;47.780;9.606;2023-02-11T03:47:37;-0.90;99.90
19930;DHT22;10127;47.780;9.606;2023-02-11T03:50:05;-0.90;99.90
19930;DHT22;10127;47.780;9.606;2023-02-11T03:52:34;-1.00;99.90
19930;DHT22;10127;47.780;9.606;2023-02-11T03:55:02;-1.00;99.90
19930;DHT22;10127;47.780;9.606;2023-02-11T03:57:30;-1.00;99.90
19930;DHT22;10127;47.780;9.606;2023-02-11T03:59:58;-1.40;99.90
19930;DHT22;10127;47.780;9.606;2023-02-11T04:02:28;-1.80;99.90
19930;DHT22;10127;47.780;9.606;2023-02-11T04:04:55;-1.90;99.90
19930;DHT22;10127;47.780;9.606;2023-02-11T04:07:21;-1.90;99.90
19930;DHT22;10127;47.780;9.606;2023-02-11T04:09:47;-1.70;99.90
19930;DHT22;10127;47.780;9.606;2023-02-11T04:12:12;-1.40;99.90
19930;DHT22;10127;47.780;9.606;2023-02-11T04:14:38;-1.30;99.90
19930;DHT22;10127;47.780;9.606;2023-02-11T04:17:03;-1.30;99.90
19930;DHT22;10127;47.780;9.606;2023-02-11T04:19:29;-1.30;99.90
19930;DHT22;10127;47.780;9.606;2023-02-11T04:21:55;-1.30;99.90
19930;DHT22;10127;47.780;9.606;2023-02-11T04:24:20;-1.30;99.90
19930;DHT22;10127;47.780;9.606;2023-02-11T04:26:46;-1.40;99.90
19930;DHT22;10127;47.780;9.606;2023-02-11T04:29:11;-1.30;99.90
19930;DHT22;10127;47.780;9.606;2023-02-11T04:31:37;-1.30;99.90
19930;DHT22;10127;47.780;9.606;2023-02-11T04:34:02;-1.10;99.90
19930;DHT22;10127;47.780;9.606;2023-02-11T04:36:28;-1.20;99.90
19930;DHT22;10127;47.780;9.606;2023-02-11T04:38:53;-1.20;99.90
19930;DHT22;10127;47.780;9.606;2023-02-11T04:41:19;-1.10;99.90
19930;DHT22;10127;47.780;9.606;2023-02-11T04:43:45;-1.20;99.90
19930;DHT22;10127;47.780;9.606;2023-02-11T04:46:10;-1.20;99.90
19930;DHT22;10127;47.780;9.606;2023-02-11T04:48:36;-1.30;99.90
19930;DHT22;10127;47.780;9.606;2023-02-11T04:51:01;-1.30;99.90
19930;DHT22;10127;47.780;9.606;2023-02-11T04:53:27;-1.40;99.90
19930;DHT22;10127;47.780;9.606;2023-02-11T04:55:53;-1.50;99.90
19930;DHT22;10127;47.780;9.606;2023-02-11T04:58:18;-1.50;99.90
19930;DHT22;10127;47.780;9.606;2023-02-11T05:00:44;-1.70;99.90
19930;DHT22;10127;47.780;9.606;2023-02-11T05:03:10;-1.90;99.90
19930;DHT22;10127;47.780;9.606;2023-02-11T05:05:40;-1.90;99.90
19930;DHT22;10127;47.780;9.606;2023-02-11T05:08:07;-2.00;99.90
19930;DHT22;10127;47.780;9.606;2023-02-11T05:10:33;-2.00;99.90
19930;DHT22;10127;47.780;9.606;2023-02-11T05:12:59;-1.80;99.90
19930;DHT22;10127;47.780;9.606;2023-02-11T05:15:25;-1.90;99.90
19930;DHT22;10127;47.780;9.606;2023-02-11T05:17:51;-2.10;99.90
19930;DHT22;10127;47.780;9.606;2023-02-11T05:20:16;-2.10;99.90
19930;DHT22;10127;47.780;9.606;2023-02-11T05:22:42;-2.00;99.90
19930;DHT22;10127;47.780;9.606;2023-02-11T05:25:07;-2.00;99.90
19930;DHT22;10127;47.780;9.606;2023-02-11T05:27:33;-2.00;99.90
19930;DHT22;10127;47.780;9.606;2023-02-11T05:29:59;-1.90;99.90
19930;DHT22;10127;47.780;9.606;2023-02-11T05:32:24;-1.80;99.90
19930;DHT22;10127;47.780;9.606;2023-02-11T05:34:50;-1.70;99.90
19930;DHT22;10127;47.780;9.606;2023-02-11T05:37:15;-1.60;99.90
19930;DHT22;10127;47.780;9.606;2023-02-11T05:39:41;-1.70;99.90
19930;DHT22;10127;47.780;9.606;2023-02-11T05:42:06;-2.00;99.90
19930;DHT22;10127;47.780;9.606;2023-02-11T05:44:32;-2.10;99.90
19930;DHT22;10127;47.780;9.606;2023-02-11T05:46:57;-2.20;99.90
19930;DHT22;10127;47.780;9.606;2023-02-11T05:49:23;-2.30;99.90
19930;DHT22;10127;47.780;9.606;2023-02-11T05:51:48;-2.40;99.90
19930;DHT22;10127;47.780;9.606;2023-02-11T05:54:14;-2.20;99.90
19930;DHT22;10127;47.780;9.606;2023-02-11T05:56:40;-1.90;99.90
19930;DHT22;10127;47.780;9.606;2023-02-11T05:59:05;-1.80;99.90
19930;DHT22;10127;47.780;9.606;2023-02-11T06:01:31;-1.80;99.90
19930;DHT22;10127;47.780;9.606;2023-02-11T06:03:56;-1.70;99.90
19930;DHT22;10127;47.780;9.606;2023-02-11T06:06:22;-1.60;99.90
19930;DHT22;10127;47.780;9.606;2023-02-11T06:08:48;-1.40;99.90
19930;DHT22;10127;47.780;9.606;2023-02-11T06:11:15;-1.40;99.90
19930;DHT22;10127;47.780;9.606;2023-02-11T06:13:40;-1.40;99.90
19930;DHT22;10127;47.780;9.606;2023-02-11T06:16:06;-1.50;99.90
19930;DHT22;10127;47.780;9.606;2023-02-11T06:18:31;-1.50;99.90
19930;DHT22;10127;47.780;9.606;2023-02-11T06:20:58;-1.60;99.90
19930;DHT22;10127;47.780;9.606;2023-02-11T06:23:24;-1.60;99.90
19930;DHT22;10127;47.780;9.606;2023-02-11T06:25:51;-1.60;99.90
19930;DHT22;10127;47.780;9.606;2023-02-11T06:28:17;-1.60;99.90
19930;DHT22;10127;47.780;9.606;2023-02-11T06:30:42;-1.60;99.90
19930;DHT22;10127;47.780;9.606;2023-02-11T06:33:08;-1.50;99.90
19930;DHT22;10127;47.780;9.606;2023-02-11T06:35:34;-1.40;99.90
19930;DHT22;10127;47.780;9.606;2023-02-11T06:38:00;-1.30;99.90
19930;DHT22;10127;47.780;9.606;2023-02-11T06:40:26;-1.20;99.90
19930;DHT22;10127;47.780;9.606;2023-02-11T06:42:51;-1.10;99.90
19930;DHT22;10127;47.780;9.606;2023-02-11T06:45:17;-1.30;99.90
19930;DHT22;10127;47.780;9.606;2023-02-11T06:47:44;-1.50;99.90
19930;DHT22;10127;47.780;9.606;2023-02-11T06:50:12;-1.60;99.90
19930;DHT22;10127;47.780;9.606;2023-02-11T06:52:38;-1.60;99.90
19930;DHT22;10127;47.780;9.606;2023-02-11T06:55:04;-1.70;99.90
19930;DHT22;10127;47.780;9.606;2023-02-11T06:57:30;-1.60;99.90
19930;DHT22;10127;47.780;9.606;2023-02-11T06:59:56;-1.70;99.90
19930;DHT22;10127;47.780;9.606;2023-02-11T07:02:22;-1.80;99.90
19930;DHT22;10127;47.780;9.606;2023-02-11T07:04:48;-2.00;99.90
19930;DHT22;10127;47.780;9.606;2023-02-11T07:07:14;-2.10;99.90
19930;DHT22;10127;47.780;9.606;2023-02-11T07:09:40;-1.90;99.90
19930;DHT22;10127;47.780;9.606;2023-02-11T07:12:05;-1.90;99.90
19930;DHT22;10127;47.780;9.606;2023-02-11T07:14:33;-2.00;99.90
19930;DHT22;10127;47.780;9.606;2023-02-11T07:16:58;-2.00;99.90
19930;DHT22;10127;47.780;9.606;2023-02-11T07:19:24;-2.10;99.90
19930;DHT22;10127;47.780;9.606;2023-02-11T07:21:50;-1.70;99.90
19930;DHT22;10127;47.780;9.606;2023-02-11T07:24:15;-1.30;99.90
19930;DHT22;10127;47.780;9.606;2023-02-11T07:26:41;-1.00;99.90
19930;DHT22;10127;47.780;9.606;2023-02-11T07:29:06;-0.70;99.90
19930;DHT22;10127;47.780;9.606;2023-02-11T07:31:32;-0.40;99.90
19930;DHT22;10127;47.780;9.606;2023-02-11T07:33:59;0.00;99.90
19930;DHT22;10127;47.780;9.606;2023-02-11T07:36:26;0.20;99.90
19930;DHT22;10127;47.780;9.606;2023-02-11T07:38:52;0.00;99.90
19930;DHT22;10127;47.780;9.606;2023-02-11T07:41:19;-0.30;99.90
19930;DHT22;10127;47.780;9.606;2023-02-11T07:43:46;-0.10;99.90
19930;DHT22;10127;47.780;9.606;2023-02-11T07:46:30;-0.10;99.90
19930;DHT22;10127;47.780;9.606;2023-02-11T07:48:55;-0.20;99.90
19930;DHT22;10127;47.780;9.606;2023-02-11T07:51:26;-0.20;99.90
19930;DHT22;10127;47.780;9.606;2023-02-11T07:53:53;-0.10;99.90
19930;DHT22;10127;47.780;9.606;2023-02-11T07:56:20;0.00;99.90
19930;DHT22;10127;47.780;9.606;2023-02-11T07:58:46;0.10;99.90
19930;DHT22;10127;47.780;9.606;2023-02-11T08:01:19;0.10;99.90
19930;DHT22;10127;47.780;9.606;2023-02-11T08:03:47;0.10;99.90
19930;DHT22;10127;47.780;9.606;2023-02-11T08:06:14;-0.10;99.90
19930;DHT22;10127;47.780;9.606;2023-02-11T08:08:41;0.10;99.90
19930;DHT22;10127;47.780;9.606;2023-02-11T08:11:21;0.40;99.90
19930;DHT22;10127;47.780;9.606;2023-02-11T08:13:47;0.40;99.90
19930;DHT22;10127;47.780;9.606;2023-02-11T08:16:29;0.30;99.90
19930;DHT22;10127;47.780;9.606;2023-02-11T08:18:57;0.40;99.90
19930;DHT22;10127;47.780;9.606;2023-02-11T08:21:23;0.30;99.90
19930;DHT22;10127;47.780;9.606;2023-02-11T08:23:49;0.40;99.90
19930;DHT22;10127;47.780;9.606;2023-02-11T08:26:18;0.80;99.90
19930;DHT22;10127;47.780;9.606;2023-02-11T08:28:45;0.50;99.90
19930;DHT22;10127;47.780;9.606;2023-02-11T08:31:16;0.60;99.90
19930;DHT22;10127;47.780;9.606;2023-02-11T08:33:42;0.80;99.90
19930;DHT22;10127;47.780;9.606;2023-02-11T08:36:13;1.00;99.90
19930;DHT22;10127;47.780;9.606;2023-02-11T08:38:39;0.70;99.90
19930;DHT22;10127;47.780;9.606;2023-02-11T08:41:06;0.40;99.90
19930;DHT22;10127;47.780;9.606;2023-02-11T08:43:32;0.20;99.90
19930;DHT22;10127;47.780;9.606;2023-02-11T08:45:58;0.40;99.90
19930;DHT22;10127;47.780;9.606;2023-02-11T08:48:25;0.70;99.90
19930;DHT22;10127;47.780;9.606;2023-02-11T08:50:50;0.90;99.90
19930;DHT22;10127;47.780;9.606;2023-02-11T08:53:16;1.10;99.90
19930;DHT22;10127;47.780;9.606;2023-02-11T08:55:48;1.00;99.90
19930;DHT22;10127;47.780;9.606;2023-02-11T08:58:14;1.00;99.90
19930;DHT22;10127;47.780;9.606;2023-02-11T09:00:39;0.90;99.90
19930;DHT22;10127;47.780;9.606;2023-02-11T09:03:05;0.80;99.90
19930;DHT22;10127;47.780;9.606;2023-02-11T09:05:30;0.80;99.90
19930;DHT22;10127;47.780;9.606;2023-02-11T09:07:56;1.10;99.90
19930;DHT22;10127;47.780;9.606;2023-02-11T09:10:21;1.50;99.90
19930;DHT22;10127;47.780;9.606;2023-02-11T09:12:47;1.60;99.90
19930;DHT22;10127;47.780;9.606;2023-02-11T09:15:12;1.80;99.90
19930;DHT22;10127;47.780;9.606;2023-02-11T09:17:38;1.70;99.90
19930;DHT22;10127;47.780;9.606;2023-02-11T09:20:04;1.70;99.90
19930;DHT22;10127;47.780;9.606;2023-02-11T09:22:29;1.90;99.90
19930;DHT22;10127;47.780;9.606;2023-02-11T09:24:55;2.20;99.90
19930;DHT22;10127;47.780;9.606;2023-02-11T09:27:21;2.40;99.90
19930;DHT22;10127;47.780;9.606;2023-02-11T09:29:46;2.40;99.90
19930;DHT22;10127;47.780;9.606;2023-02-11T09:32:12;2.40;99.90
19930;DHT22;10127;47.780;9.606;2023-02-11T09:34:37;2.40;99.90
19930;DHT22;10127;47.780;9.606;2023-02-11T09:37:03;2.30;99.90
19930;DHT22;10127;47.780;9.606;2023-02-11T09:39:28;2.60;99.90
19930;DHT22;10127;47.780;9.606;2023-02-11T09:44:49;2.80;99.90
19930;DHT22;10127;47.780;9.606;2023-02-11T09:47:25;3.00;99.90
19930;DHT22;10127;47.780;9.606;2023-02-11T09:50:00;3.40;99.90
19930;DHT22;10127;47.780;9.606;2023-02-11T09:52:57;3.30;99.90
19930;DHT22;10127;47.780;9.606;2023-02-11T09:55:38;3.30;99.90
19930;DHT22;10127;47.780;9.606;2023-02-11T09:58:14;3.40;99.90
19930;DHT22;10127;47.780;9.606;2023-02-11T10:00:59;3.50;99.90
19930;DHT22;10127;47.780;9.606;2023-02-11T10:06:31;3.40;99.90
19930;DHT22;10127;47.780;9.606;2023-02-11T10:11:55;3.50;99.90
19930;DHT22;10127;47.780;9.606;2023-02-11T10:17:30;3.30;99.90
19930;DHT22;10127;47.780;9.606;2023-02-11T10:22:40;3.30;99.90
19930;DHT22;10127;47.780;9.606;2023-02-11T10:25:35;3.20;99.90
19930;DHT22;10127;47.780;9.606;2023-02-11T10:28:14;3.10;99.90
19930;DHT22;10127;47.780;9.606;2023-02-11T10:33:48;3.50;99.90
19930;DHT22;10127;47.780;9.606;2023-02-11T10:36:16;3.60;99.90
19930;DHT22;10127;47.780;9.606;2023-02-11T10:38:43;3.70;99.90
19930;DHT22;10127;47.780;9.606;2023-02-11T10:41:16;3.70;99.90
19930;DHT22;10127;47.780;9.606;2023-02-11T10:43:42;3.80;99.90
19930;DHT22;10127;47.780;9.606;2023-02-11T10:46:17;3.70;99.90
19930;DHT22;10127;47.780;9.606;2023-02-11T10:48:48;3.70;99.90
19930;DHT22;10127;47.780;9.606;2023-02-11T10:51:32;3.60;99.90
19930;DHT22;10127;47.780;9.606;2023-02-11T10:56:40;3.70;99.90
19930;DHT22;10127;47.780;9.606;2023-02-11T11:01:56;3.90;99.90
19930;DHT22;10127;47.780;9.606;2023-02-11T11:06:56;4.50;99.90
19930;DHT22;10127;47.780;9.606;2023-02-11T11:09:27;4.90;99.90
19930;DHT22;10127;47.780;9.606;2023-02-11T11:11:54;5.10;99.90
19930;DHT22;10127;47.780;9.606;2023-02-11T11:14:26;5.30;99.90
19930;DHT22;10127;47.780;9.606;2023-02-11T11:16:54;5.40;99.90
19930;DHT22;10127;47.780;9.606;2023-02-11T11:19:24;5.30;99.90
19930;DHT22;10127;47.780;9.606;2023-02-11T11:21:55;5.40;99.90
19930;DHT22;10127;47.780;9.606;2023-02-11T11:26:47;5.40;99.90
19930;DHT22;10127;47.780;9.606;2023-02-11T11:32:01;5.30;99.90
19930;DHT22;10127;47.780;9.606;2023-02-11T11:34:41;5.30;99.90
19930;DHT22;10127;47.780;9.606;2023-02-11T11:37:11;5.20;99.90
19930;DHT22;10127;47.780;9.606;2023-02-11T11:39:38;5.20;99.90
19930;DHT22;10127;47.780;9.606;2023-02-11T11:42:21;5.10;99.90
19930;DHT22;10127;47.780;9.606;2023-02-11T11:45:42;5.20;99.90
19930;DHT22;10127;47.780;9.606;2023-02-11T11:48:05;5.40;99.90
19930;DHT22;10127;47.780;9.606;2023-02-11T11:50:44;5.50;99.90
19930;DHT22;10127;47.780;9.606;2023-02-11T11:53:15;5.60;99.90
19930;DHT22;10127;47.780;9.606;2023-02-11T11:55:50;5.80;99.90
19930;DHT22;10127;47.780;9.606;2023-02-11T11:58:20;5.80;99.90
19930;DHT22;10127;47.780;9.606;2023-02-11T12:09:36;5.00;99.90
19930;DHT22;10127;47.780;9.606;2023-02-11T12:28:43;5.50;99.90
19930;DHT22;10127;47.780;9.606;2023-02-11T12:31:33;5.50;99.90
19930;DHT22;10127;47.780;9.606;2023-02-11T12:51:00;6.00;99.90
19930;DHT22;10127;47.780;9.606;2023-02-11T12:53:57;6.10;99.90
19930;DHT22;10127;47.780;9.606;2023-02-11T12:59:46;6.50;99.90
19930;DHT22;10127;47.780;9.606;2023-02-11T13:07:46;6.90;99.90
19930;DHT22;10127;47.780;9.606;2023-02-11T13:12:44;6.90;99.90
19930;DHT22;10127;47.780;9.606;2023-02-11T13:15:30;6.80;99.90
19930;DHT22;10127;47.780;9.606;2023-02-11T13:18:23;7.00;99.90
19930;DHT22;10127;47.780;9.606;2023-02-11T13:21:25;6.90;99.90
19930;DHT22;10127;47.780;9.606;2023-02-11T13:32:07;6.60;99.90
19930;DHT22;10127;47.780;9.606;2023-02-11T13:37:37;6.70;99.90
19930;DHT22;10127;47.780;9.606;2023-02-11T13:42:32;7.00;99.90
19930;DHT22;10127;47.780;9.606;2023-02-11T13:44:58;7.10;99.90
19930;DHT22;10127;47.780;9.606;2023-02-11T13:47:32;7.30;99.90
19930;DHT22;10127;47.780;9.606;2023-02-11T13:50:00;7.50;99.90
19930;DHT22;10127;47.780;9.606;2023-02-11T13:52:29;7.40;99.90
19930;DHT22;10127;47.780;9.606;2023-02-11T13:55:02;7.60;99.90
19930;DHT22;10127;47.780;9.606;2023-02-11T13:57:34;7.70;99.90
19930;DHT22;10127;47.780;9.606;2023-02-11T14:06:16;7.70;99.90
19930;DHT22;10127;47.780;9.606;2023-02-11T14:11:52;8.30;99.90
19930;DHT22;10127;47.780;9.606;2023-02-11T14:14:23;8.30;99.90
19930;DHT22;10127;47.780;9.606;2023-02-11T14:27:13;8.20;99.90
19930;DHT22;10127;47.780;9.606;2023-02-11T14:30:12;8.30;99.90
19930;DHT22;10127;47.780;9.606;2023-02-11T14:40:38;8.00;99.90
19930;DHT22;10127;47.780;9.606;2023-02-11T14:43:34;7.90;99.90
19930;DHT22;10127;47.780;9.606;2023-02-11T14:46:01;7.90;99.90
19930;DHT22;10127;47.780;9.606;2023-02-11T14:48:34;7.80;99.90
19930;DHT22;10127;47.780;9.606;2023-02-11T14:51:13;7.90;99.90
19930;DHT22;10127;47.780;9.606;2023-02-11T14:53:43;7.90;99.90
19930;DHT22;10127;47.780;9.606;2023-02-11T14:56:19;7.80;99.90
19930;DHT22;10127;47.780;9.606;2023-02-11T14:58:46;7.90;99.90
19930;DHT22;10127;47.780;9.606;2023-02-11T15:01:33;7.90;99.90
19930;DHT22;10127;47.780;9.606;2023-02-11T15:04:01;7.90;99.90
19930;DHT22;10127;47.780;9.606;2023-02-11T15:06:46;7.70;99.90
19930;DHT22;10127;47.780;9.606;2023-02-11T15:09:16;7.70;99.90
19930;DHT22;10127;47.780;9.606;2023-02-11T15:11:46;7.60;99.90
19930;DHT22;10127;47.780;9.606;2023-02-11T15:14:27;7.60;99.90
19930;DHT22;10127;47.780;9.606;2023-02-11T15:16:57;7.70;99.90
19930;DHT22;10127;47.780;9.606;2023-02-11T15:19:33;7.60;99.90
19930;DHT22;10127;47.780;9.606;2023-02-11T15:22:14;7.70;99.90
19930;DHT22;10127;47.780;9.606;2023-02-11T15:24:58;7.60;99.90
19930;DHT22;10127;47.780;9.606;2023-02-11T15:27:24;7.30;99.90
19930;DHT22;10127;47.780;9.606;2023-02-11T15:29:50;7.30;99.90
19930;DHT22;10127;47.780;9.606;2023-02-11T15:32:21;7.20;99.90
19930;DHT22;10127;47.780;9.606;2023-02-11T15:34:48;7.20;99.90
19930;DHT22;10127;47.780;9.606;2023-02-11T15:37:25;7.20;99.90
19930;DHT22;10127;47.780;9.606;2023-02-11T15:39:53;7.00;99.90
19930;DHT22;10127;47.780;9.606;2023-02-11T15:42:19;6.90;99.90
19930;DHT22;10127;47.780;9.606;2023-02-11T15:44:45;6.80;99.90
19930;DHT22;10127;47.780;9.606;2023-02-11T15:47:18;6.70;99.90
19930;DHT22;10127;47.780;9.606;2023-02-11T15:49:45;6.60;99.90
19930;DHT22;10127;47.780;9.606;2023-02-11T15:52:22;6.50;99.90
19930;DHT22;10127;47.780;9.606;2023-02-11T15:54:48;6.30;99.90
19930;DHT22;10127;47.780;9.606;2023-02-11T15:57:14;6.20;99.90
19930;DHT22;10127;47.780;9.606;2023-02-11T15:59:47;6.20;99.90
19930;DHT22;10127;47.780;9.606;2023-02-11T16:04:59;6.30;99.90
19930;DHT22;10127;47.780;9.606;2023-02-11T16:07:43;6.30;99.90
19930;DHT22;10127;47.780;9.606;2023-02-11T16:10:38;6.20;99.90
19930;DHT22;10127;47.780;9.606;2023-02-11T16:13:17;6.20;99.90
19930;DHT22;10127;47.780;9.606;2023-02-11T16:16:02;6.20;99.90
19930;DHT22;10127;47.780;9.606;2023-02-11T16:18:33;6.20;99.90
19930;DHT22;10127;47.780;9.606;2023-02-11T16:21:00;6.00;99.90
19930;DHT22;10127;47.780;9.606;2023-02-11T16:23:28;6.00;99.90
19930;DHT22;10127;47.780;9.606;2023-02-11T16:26:09;5.90;99.90
19930;DHT22;10127;47.780;9.606;2023-02-11T16:28:36;5.90;99.90
19930;DHT22;10127;47.780;9.606;2023-02-11T16:31:02;5.80;99.90
19930;DHT22;10127;47.780;9.606;2023-02-11T16:33:28;5.70;99.90
19930;DHT22;10127;47.780;9.606;2023-02-11T16:35:54;5.60;99.90
19930;DHT22;10127;47.780;9.606;2023-02-11T16:38:20;5.50;99.90
19930;DHT22;10127;47.780;9.606;2023-02-11T16:40:45;5.50;99.90
19930;DHT22;10127;47.780;9.606;2023-02-11T16:43:17;5.50;99.90
19930;DHT22;10127;47.780;9.606;2023-02-11T16:45:42;5.40;99.90
19930;DHT22;10127;47.780;9.606;2023-02-11T16:48:12;5.30;99.90
19930;DHT22;10127;47.780;9.606;2023-02-11T16:50:44;5.30;99.90
19930;DHT22;10127;47.780;9.606;2023-02-11T16:53:11;5.20;99.90
19930;DHT22;10127;47.780;9.606;2023-02-11T16:55:36;5.20;99.90
19930;DHT22;10127;47.780;9.606;2023-02-11T16:58:02;5.20;99.90
19930;DHT22;10127;47.780;9.606;2023-02-11T17:00:28;5.20;99.90
19930;DHT22;10127;47.780;9.606;2023-02-11T17:02:54;5.10;99.90
19930;DHT22;10127;47.780;9.606;2023-02-11T17:05:21;5.00;99.90
19930;DHT22;10127;47.780;9.606;2023-02-11T17:07:49;4.90;99.90
19930;DHT22;10127;47.780;9.606;2023-02-11T17:10:21;4.80;99.90
19930;DHT22;10127;47.780;9.606;2023-02-11T17:12:48;4.80;99.90
19930;DHT22;10127;47.780;9.606;2023-02-11T17:15:14;4.60;99.90
19930;DHT22;10127;47.780;9.606;2023-02-11T17:17:40;4.50;99.90
19930;DHT22;10127;47.780;9.606;2023-02-11T17:20:06;4.40;99.90
19930;DHT22;10127;47.780;9.606;2023-02-11T17:22:33;4.50;99.90
19930;DHT22;10127;47.780;9.606;2023-02-11T17:24:59;4.40;99.90
19930;DHT22;10127;47.780;9.606;2023-02-11T17:27:24;4.40;99.90
19930;DHT22;10127;47.780;9.606;2023-02-11T17:29:50;4.40;99.90
19930;DHT22;10127;47.780;9.606;2023-02-11T17:32:16;4.50;99.90
19930;DHT22;10127;47.780;9.606;2023-02-11T17:34:41;4.50;99.90
19930;DHT22;10127;47.780;9.606;2023-02-11T17:37:07;4.50;99.90
19930;DHT22;10127;47.780;9.606;2023-02-11T17:39:38;4.30;99.90
19930;DHT22;10127;47.780;9.606;2023-02-11T17:42:05;4.30;99.90
19930;DHT22;10127;47.780;9.606;2023-02-11T17:44:32;4.10;99.90
19930;DHT22;10127;47.780;9.606;2023-02-11T17:46:57;4.00;99.90
19930;DHT22;10127;47.780;9.606;2023-02-11T17:49:23;3.90;99.90
19930;DHT22;10127;47.780;9.606;2023-02-11T17:51:49;3.90;99.90
19930;DHT22;10127;47.780;9.606;2023-02-11T17:54:17;3.90;99.90
19930;DHT22;10127;47.780;9.606;2023-02-11T17:56:44;3.90;99.90
19930;DHT22;10127;47.780;9.606;2023-02-11T17:59:11;3.90;99.90
19930;DHT22;10127;47.780;9.606;2023-02-11T18:01:38;3.80;99.90
19930;DHT22;10127;47.780;9.606;2023-02-11T18:04:05;3.80;99.90
19930;DHT22;10127;47.780;9.606;2023-02-11T18:06:31;3.70;99.90
19930;DHT22;10127;47.780;9.606;2023-02-11T18:08:58;3.70;99.90
19930;DHT22;10127;47.780;9.606;2023-02-11T18:11:27;3.70;99.90
19930;DHT22;10127;47.780;9.606;2023-02-11T18:13:55;3.70;99.90
19930;DHT22;10127;47.780;9.606;2023-02-11T18:16:22;3.60;99.90
19930;DHT22;10127;47.780;9.606;2023-02-11T18:18:48;3.40;99.90
19930;DHT22;10127;47.780;9.606;2023-02-11T18:21:16;3.30;99.90
19930;DHT22;10127;47.780;9.606;2023-02-11T18:23:42;3.10;99.90
19930;DHT22;10127;47.780;9.606;2023-02-11T18:26:10;3.10;99.90
19930;DHT22;10127;47.780;9.606;2023-02-11T18:28:35;3.20;99.90
19930;DHT22;10127;47.780;9.606;2023-02-11T18:31:01;3.20;99.90
19930;DHT22;10127;47.780;9.606;2023-02-11T18:33:28;3.30;99.90
19930;DHT22;10127;47.780;9.606;2023-02-11T18:35:55;3.40;99.90
19930;DHT22;10127;47.780;9.606;2023-02-11T18:38:21;3.40;99.90
19930;DHT22;10127;47.780;9.606;2023-02-11T18:40:48;3.30;99.90
19930;DHT22;10127;47.780;9.606;2023-02-11T18:43:15;3.30;99.90
19930;DHT22;10127;47.780;9.606;2023-02-11T18:45:45;3.20;99.90